Time;durP1;ratioP1;P1;durP2;ratioP2;P2;SDS_P1;SDS_P2;PMS_P1;PMS_P2;Temp;Humidity;BMP_temperature;BMP_pressure;BME280_temperature;BME280_humidity;BME280_pressure;Samples;Min_cycle;Max_cycle;Signal;HPM_P1;HPM_P2
2023/06/01 00:00:15;;;;;;;20.97;13.43;;;;;;;-141.97;83.37;47705.53;4994287;28;20175;-86
2023/06/01 00:02:41;;;;;;;22.57;14.17;;;;;;;-141.97;83.31;47761.25;4994939;28;20605;-86
2023/06/01 00:05:07;;;;;;;19.00;13.20;;;;;;;-141.97;83.72;47392.22;4995993;28;20550;-86
2023/06/01 00:07:33;;;;;;;23.93;14.00;;;;;;;-141.97;84.49;47722.81;5010546;28;20170;-85
2023/06/01 00:10:00;;;;;;;22.17;13.57;;;;;;;-141.97;84.66;47534.44;5017348;28;20167;-86
2023/06/01 00:12:25;;;;;;;19.13;12.80;;;;;;;-141.97;83.72;47557.53;4987727;28;20305;-87
2023/06/01 00:14:51;;;;;;;21.47;12.57;;;;;;;-141.97;83.86;47628.63;4977966;28;20623;-85
2023/06/01 00:17:16;;;;;;;19.00;11.53;;;;;;;-141.97;83.62;47807.41;4995115;28;20163;-85
2023/06/01 00:19:44;;;;;;;18.50;12.00;;;;;;;-141.97;84.17;47638.25;4977215;28;20223;-86
2023/06/01 00:22:10;;;;;;;17.57;11.67;;;;;;;-141.97;84.13;47590.19;4994468;28;20151;-86
2023/06/01 00:24:36;;;;;;;20.17;12.60;;;;;;;-141.97;83.75;47603.66;4994408;28;20178;-86
2023/06/01 00:27:01;;;;;;;19.30;12.30;;;;;;;-141.97;83.59;47565.22;4976515;28;20186;-87
2023/06/01 00:29:27;;;;;;;18.13;12.30;;;;;;;-141.97;83.38;47699.75;4976841;28;20171;-86
2023/06/01 00:31:52;;;;;;;19.67;11.17;;;;;;;-141.97;83.00;47536.38;4994921;28;20234;-86
2023/06/01 00:34:17;;;;;;;17.90;11.20;;;;;;;-141.97;82.30;47768.94;4994548;28;20168;-86
2023/06/01 00:36:43;;;;;;;21.10;11.57;;;;;;;-141.97;81.23;47644.00;4997663;28;20176;-86
2023/06/01 00:39:09;;;;;;;21.07;10.93;;;;;;;-141.97;81.31;47574.81;4999526;28;20170;-87
2023/06/01 00:41:34;;;;;;;17.23;10.90;;;;;;;-141.97;82.93;47578.66;4994656;28;20168;-86
2023/06/01 00:44:00;;;;;;;17.10;11.63;;;;;;;-141.97;83.62;47655.53;4994371;28;20178;-86
2023/06/01 00:46:27;;;;;;;16.93;11.20;;;;;;;-141.97;84.15;47653.63;4977406;28;20171;-86
2023/06/01 00:48:54;;;;;;;17.47;10.83;;;;;;;-141.97;84.88;47430.66;4994330;28;20190;-86
2023/06/01 00:51:20;;;;;;;16.67;10.90;;;;;;;-141.97;85.46;47588.28;4994310;28;20187;-86
2023/06/01 00:53:45;;;;;;;16.40;11.10;;;;;;;-141.97;85.64;47570.97;4976723;28;20187;-86
2023/06/01 00:56:14;;;;;;;17.87;11.20;;;;;;;-141.97;86.42;47592.13;4993593;28;20168;-85
2023/06/01 00:58:40;;;;;;;16.90;10.97;;;;;;;-141.97;86.75;47619.03;4976281;28;20168;-86
2023/06/01 01:01:07;;;;;;;17.73;10.90;;;;;;;-141.97;86.80;47449.88;4995329;28;20187;-86
2023/06/01 01:03:34;;;;;;;18.60;11.30;;;;;;;-141.97;86.43;47599.81;4997468;28;20704;-86
2023/06/01 01:06:35;;;;;;;16.43;10.63;;;;;;;-141.97;86.00;47663.22;4997432;28;20530;-86
2023/06/01 01:09:13;;;;;;;16.70;10.80;;;;;;;-141.97;86.75;47772.78;4898849;29;20564;-86
2023/06/01 01:11:43;;;;;;;18.17;11.27;;;;;;;-141.97;87.56;47732.44;4899325;29;20364;-86
2023/06/01 01:14:20;;;;;;;19.20;10.20;;;;;;;-141.97;87.82;47649.78;4916540;29;20730;-85
2023/06/01 01:16:53;;;;;;;18.80;10.70;;;;;;;-141.97;88.63;47672.84;4918520;29;20276;-86
2023/06/01 01:19:58;;;;;;;15.90;10.47;;;;;;;-141.97;89.04;47655.53;4918219;29;20225;-86
2023/06/01 01:22:43;;;;;;;16.80;10.67;;;;;;;-141.97;89.28;47630.56;4843275;29;20687;-86
2023/06/01 01:25:40;;;;;;;17.60;11.00;;;;;;;-141.97;89.67;47569.06;4829921;29;20292;-85
2023/06/01 01:28:05;;;;;;;19.80;11.07;;;;;;;-141.97;89.37;47672.84;4844219;29;20178;-86
2023/06/01 01:30:32;;;;;;;17.03;10.90;;;;;;;-141.97;90.06;47632.47;4842724;29;20177;-86
2023/06/01 01:32:59;;;;;;;23.20;11.53;;;;;;;-141.97;90.10;47665.16;4843140;29;20307;-86
2023/06/01 01:35:27;;;;;;;16.40;11.50;;;;;;;-141.97;89.76;47688.22;4843655;29;20673;-86
2023/06/01 01:37:54;;;;;;;17.43;11.30;;;;;;;-141.97;89.26;47574.81;4843106;29;20201;-86
2023/06/01 01:40:20;;;;;;;19.57;10.77;;;;;;;-141.97;89.06;47584.44;4843364;29;20681;-86
2023/06/01 01:42:46;;;;;;;18.20;10.97;;;;;;;-141.97;89.08;47480.63;4842758;29;20172;-86
2023/06/01 01:45:13;;;;;;;18.23;10.97;;;;;;;-141.97;88.52;47803.56;4865673;29;20542;-86
2023/06/01 01:47:48;;;;;;;16.30;10.87;;;;;;;-141.97;88.25;47657.47;4938836;29;20177;-86
2023/06/01 01:50:18;;;;;;;16.67;11.33;;;;;;;-141.97;88.07;47582.50;4921406;28;20188;-85
2023/06/01 01:52:45;;;;;;;17.33;10.77;;;;;;;-141.97;88.05;47820.84;4936450;29;20211;-86
2023/06/01 01:55:12;;;;;;;16.47;10.73;;;;;;;-141.97;87.74;47818.94;4937197;29;20181;-86
2023/06/01 01:57:38;;;;;;;21.17;11.40;;;;;;;-141.97;87.26;47663.22;4969865;28;20732;-86
2023/06/01 02:00:08;;;;;;;19.40;11.30;;;;;;;-141.97;86.86;47661.31;5017924;28;20222;-86
2023/06/01 02:02:33;;;;;;;19.73;11.30;;;;;;;-141.97;87.27;47703.59;5016876;28;20177;-86
2023/06/01 02:04:59;;;;;;;16.67;11.43;;;;;;;-141.97;87.70;47597.88;5015408;28;20171;-86
2023/06/01 02:07:25;;;;;;;15.43;10.70;;;;;;;-141.97;87.86;47590.19;5015427;28;20628;-86
2023/06/01 02:09:50;;;;;;;16.80;11.13;;;;;;;-141.97;88.08;47649.78;5016143;28;20198;-86
2023/06/01 02:12:15;;;;;;;20.13;11.20;;;;;;;-141.97;88.71;47626.72;5015362;28;20218;-86
2023/06/01 02:14:41;;;;;;;19.87;11.53;;;;;;;-141.97;89.51;47657.47;5016313;28;20600;-87
2023/06/01 02:17:07;;;;;;;17.37;11.83;;;;;;;-141.97;89.00;47680.53;5026818;28;20193;-86
2023/06/01 02:19:33;;;;;;;21.47;12.10;;;;;;;-141.97;89.50;47665.16;5036878;28;20221;-87
2023/06/01 02:21:58;;;;;;;16.03;11.50;;;;;;;-141.97;89.79;47830.47;5037364;28;20259;-85
2023/06/01 02:24:24;;;;;;;20.93;11.60;;;;;;;-141.97;89.70;47678.63;5035737;28;20179;-86
2023/06/01 02:26:52;;;;;;;16.73;11.53;;;;;;;-141.97;89.81;47749.72;5025151;28;20232;-86
2023/06/01 02:29:19;;;;;;;16.97;11.97;;;;;;;-141.97;90.48;47522.91;5022602;28;20177;-85
2023/06/01 02:31:45;;;;;;;20.90;12.40;;;;;;;-141.97;90.03;47767.03;5031366;28;20199;-86
2023/06/01 02:34:10;;;;;;;18.37;12.07;;;;;;;-141.97;89.43;47822.78;5035347;28;20167;-86
2023/06/01 02:36:36;;;;;;;17.27;11.50;;;;;;;-141.97;89.29;47569.06;4999287;28;20714;-86
2023/06/01 02:39:01;;;;;;;18.50;12.13;;;;;;;-141.97;89.21;47638.25;4998987;28;20631;-86
2023/06/01 02:41:27;;;;;;;19.93;12.13;;;;;;;-141.97;89.70;47594.03;4998756;28;20175;-86
2023/06/01 02:43:52;;;;;;;20.60;12.03;;;;;;;-141.97;89.52;47563.28;5015789;28;20166;-86
2023/06/01 02:46:18;;;;;;;20.33;12.97;;;;;;;-141.97;89.46;47665.16;5016399;28;20163;-86
2023/06/01 02:48:44;;;;;;;19.70;12.20;;;;;;;-141.97;89.59;47619.03;4998177;28;20167;-87
2023/06/01 02:51:10;;;;;;;17.77;11.80;;;;;;;-141.97;89.85;47655.53;5016297;28;20158;-86
2023/06/01 02:53:35;;;;;;;19.57;12.10;;;;;;;-141.97;89.39;47782.41;5015733;28;20248;-86
2023/06/01 02:56:01;;;;;;;16.87;11.47;;;;;;;-141.97;88.50;47613.25;5015363;28;20226;-86
2023/06/01 02:58:29;;;;;;;20.70;11.80;;;;;;;-141.97;88.44;47740.13;5014683;28;20221;-86
2023/06/01 03:00:55;;;;;;;18.80;11.93;;;;;;;-141.97;88.42;47682.47;5014977;28;20158;-86
2023/06/01 03:03:20;;;;;;;18.57;11.90;;;;;;;-141.97;88.63;47830.47;5015064;28;20214;-87
2023/06/01 03:05:47;;;;;;;19.10;12.33;;;;;;;-141.97;89.38;47590.19;5015386;28;20677;-87
2023/06/01 03:08:13;;;;;;;19.03;12.30;;;;;;;-141.97;88.69;47557.53;5015312;28;20687;-87
2023/06/01 03:10:38;;;;;;;18.83;12.50;;;;;;;-141.97;87.88;47651.69;4997477;28;20182;-86
2023/06/01 03:13:04;;;;;;;17.97;11.60;;;;;;;-141.97;87.51;47684.38;5014858;28;20185;-86
2023/06/01 03:15:29;;;;;;;17.17;12.27;;;;;;;-141.97;88.02;47607.50;5014546;28;20196;-86
2023/06/01 03:17:55;;;;;;;18.83;12.27;;;;;;;-141.97;87.77;47611.34;5015166;28;20153;-87
2023/06/01 03:20:20;;;;;;;21.40;12.43;;;;;;;-141.97;87.62;47688.22;5016572;28;20276;-86
2023/06/01 03:22:46;;;;;;;19.13;12.37;;;;;;;-141.97;88.38;47776.63;4997568;28;20175;-85
2023/06/01 03:25:12;;;;;;;19.07;13.07;;;;;;;-141.97;88.92;47592.13;5013545;28;20546;-86
2023/06/01 03:27:39;;;;;;;18.73;12.87;;;;;;;-141.97;88.50;47624.78;5015680;28;20175;-87
2023/06/01 03:30:09;;;;;;;17.93;12.20;;;;;;;-141.97;87.90;47630.56;5017304;28;20255;-85
2023/06/01 03:32:38;;;;;;;20.70;13.00;;;;;;;-141.97;88.68;47649.78;5015436;28;20667;-85
2023/06/01 03:35:07;;;;;;;20.03;12.63;;;;;;;-141.97;89.48;47647.84;5015758;28;20609;-87
2023/06/01 03:37:36;;;;;;;19.10;13.20;;;;;;;-141.97;89.49;47715.13;5015979;28;20734;-86
2023/06/01 03:40:14;;;;;;;19.97;12.40;;;;;;;-141.97;88.80;47688.22;5014525;28;20481;-86
2023/06/01 03:42:48;;;;;;;20.30;12.80;;;;;;;-141.97;88.38;47699.75;5014211;28;20167;-85
2023/06/01 03:45:16;;;;;;;19.23;12.70;;;;;;;-141.97;87.64;47636.31;5016695;28;20170;-85
2023/06/01 03:47:42;;;;;;;20.60;12.50;;;;;;;-141.97;88.23;47611.34;5014161;28;20242;-86
2023/06/01 03:50:09;;;;;;;20.77;13.13;;;;;;;-141.97;88.91;47692.06;5014151;28;20694;-86
2023/06/01 03:52:35;;;;;;;22.60;13.43;;;;;;;-141.97;88.80;47703.59;4988925;28;20627;-86
2023/06/01 03:55:02;;;;;;;20.60;13.30;;;;;;;-141.97;88.46;47703.59;4993220;28;20721;-86
2023/06/01 03:57:28;;;;;;;20.83;12.83;;;;;;;-141.97;87.99;47649.78;4994839;28;20171;-86
2023/06/01 03:59:53;;;;;;;20.87;13.23;;;;;;;-141.97;87.92;47688.22;4993162;28;20186;-86
2023/06/01 04:02:19;;;;;;;19.17;12.87;;;;;;;-141.97;87.18;47697.84;4994977;28;20155;-85
2023/06/01 04:04:46;;;;;;;22.27;12.47;;;;;;;-141.97;86.91;47678.63;4992489;28;20229;-85
2023/06/01 04:07:14;;;;;;;21.00;12.53;;;;;;;-141.97;86.17;47609.41;4993994;28;20171;-85
2023/06/01 04:09:40;;;;;;;20.60;12.63;;;;;;;-141.97;85.91;47509.47;4993498;28;20213;-84
2023/06/01 04:12:06;;;;;;;19.63;12.93;;;;;;;-141.97;85.29;47684.38;4994035;28;20199;-86
2023/06/01 04:14:32;;;;;;;16.33;11.80;;;;;;;-141.97;84.64;47607.50;4984406;28;20190;-86
2023/06/01 04:16:57;;;;;;;21.50;12.70;;;;;;;-141.97;84.82;47421.06;4975253;28;20167;-87
2023/06/01 04:19:23;;;;;;;21.83;12.57;;;;;;;-141.97;84.49;47815.09;4973845;28;20228;-87
2023/06/01 04:21:49;;;;;;;17.97;11.50;;;;;;;-141.97;84.22;47738.19;4979818;28;20616;-86
2023/06/01 04:24:15;;;;;;;17.30;12.30;;;;;;;-141.97;83.86;47663.22;4987752;28;20172;-86
2023/06/01 04:26:40;;;;;;;18.37;11.83;;;;;;;-141.97;83.61;47645.94;4976545;28;20291;-86
2023/06/01 04:29:06;;;;;;;23.57;12.07;;;;;;;-141.97;82.33;47669.00;4975409;28;20203;-85
2023/06/01 04:31:32;;;;;;;18.27;12.60;;;;;;;-141.97;81.86;47622.88;4975867;28;20275;-85
2023/06/01 04:34:01;;;;;;;23.13;12.57;;;;;;;-141.97;81.86;47726.66;4975622;28;20172;-85
2023/06/01 04:36:28;;;;;;;16.87;11.60;;;;;;;-141.97;81.43;47657.47;4978097;28;20192;-85
2023/06/01 04:38:54;;;;;;;18.83;12.50;;;;;;;-141.97;81.57;47803.56;4980530;28;20156;-85
2023/06/01 04:41:28;;;;;;;19.77;11.90;;;;;;;-141.97;81.51;47678.63;4978996;28;20227;-85
2023/06/01 04:43:54;;;;;;;18.43;12.40;;;;;;;-141.97;82.25;47638.25;4997009;28;20245;-85
2023/06/01 04:46:26;;;;;;;17.50;11.87;;;;;;;-141.97;80.21;47584.44;4998953;28;20251;-86
2023/06/01 04:48:52;;;;;;;19.27;12.40;;;;;;;-141.97;80.41;47605.56;5016674;28;20217;-85
2023/06/01 04:51:23;;;;;;;21.33;12.43;;;;;;;-141.97;80.44;47472.94;5018569;28;20170;-86
2023/06/01 04:53:51;;;;;;;19.13;12.27;;;;;;;-141.97;80.42;47471.03;5011637;28;20781;-85
2023/06/01 04:56:18;;;;;;;19.77;12.20;;;;;;;-141.97;81.18;47768.94;5003077;28;20171;-85
2023/06/01 04:58:47;;;;;;;20.23;12.53;;;;;;;-141.97;79.99;47405.69;5002940;28;20163;-88
2023/06/01 05:01:15;;;;;;;19.47;11.80;;;;;;;-141.97;79.60;47849.69;4981995;28;20175;-85
2023/06/01 05:03:42;;;;;;;21.20;11.73;;;;;;;-141.97;78.23;47594.03;4998605;28;20159;-86
2023/06/01 05:06:08;;;;;;;18.70;13.90;;;;;;;-141.97;79.30;47401.84;4998572;28;20163;-87
2023/06/01 05:08:33;;;;;;;40.83;27.77;;;;;;;-141.97;79.95;47553.69;4997686;28;20147;-84
2023/06/01 05:10:59;;;;;;;31.37;19.63;;;;;;;-141.97;78.85;47594.03;5007177;28;20182;-85
2023/06/01 05:13:24;;;;;;;26.97;18.57;;;;;;;-141.97;78.38;47661.31;4995304;28;20242;-85
2023/06/01 05:15:50;;;;;;;21.57;16.27;;;;;;;-141.97;77.66;47476.78;5000684;28;20751;-86
2023/06/01 05:18:15;;;;;;;21.47;14.70;;;;;;;-141.97;76.57;47770.88;5001454;28;20242;-86
2023/06/01 05:20:40;;;;;;;27.00;19.30;;;;;;;-141.97;75.78;47611.34;4979694;28;20227;-85
2023/06/01 05:23:06;;;;;;;23.23;17.60;;;;;;;-141.97;75.04;47780.47;4977287;28;20246;-86
2023/06/01 05:25:31;;;;;;;23.00;17.37;;;;;;;-141.97;76.41;47565.22;4978529;28;20179;-85
2023/06/01 05:27:57;;;;;;;19.70;13.57;;;;;;;-141.97;75.01;47578.66;4979321;28;20164;-86
2023/06/01 05:30:22;;;;;;;21.73;13.87;;;;;;;-141.97;73.75;47734.34;4980283;28;20187;-86
2023/06/01 05:32:47;;;;;;;16.37;12.13;;;;;;;-141.97;72.38;47463.34;4981938;28;20287;-85
2023/06/01 05:35:13;;;;;;;21.07;11.87;;;;;;;-141.97;70.99;47595.97;4987259;28;20274;-85
2023/06/01 05:37:38;;;;;;;16.93;11.20;;;;;;;-141.97;71.25;47636.31;4999337;28;20207;-86
2023/06/01 05:40:07;;;;;;;17.90;11.70;;;;;;;-141.97;72.55;47519.06;5015207;28;20167;-85
2023/06/01 05:42:32;;;;;;;18.63;11.50;;;;;;;-141.97;71.71;47634.41;5004587;28;20175;-85
2023/06/01 05:44:58;;;;;;;15.47;11.13;;;;;;;-141.97;70.04;47649.78;4992805;28;20561;-87
2023/06/01 05:47:23;;;;;;;15.70;11.37;;;;;;;-141.97;69.22;47569.06;4978617;28;20613;-87
2023/06/01 05:49:49;;;;;;;15.03;10.80;;;;;;;-141.97;68.30;47607.50;4979807;28;20219;-85
2023/06/01 05:52:14;;;;;;;15.03;10.30;;;;;;;-141.97;67.23;47755.50;4954309;28;20572;-86
2023/06/01 05:54:40;;;;;;;19.57;10.50;;;;;;;-141.97;66.90;47611.34;4970537;28;20185;-85
2023/06/01 05:57:05;;;;;;;17.33;10.67;;;;;;;-141.97;67.41;47440.28;4959024;29;20263;-85
2023/06/01 05:59:31;;;;;;;12.17;9.47;;;;;;;-141.97;66.23;47574.81;4957254;28;20165;-86
2023/06/01 06:01:56;;;;;;;16.93;9.87;;;;;;;-141.97;65.50;47428.75;4973801;28;20243;-85
2023/06/01 06:04:23;;;;;;;14.80;10.17;;;;;;;-141.97;65.50;47726.66;4978568;28;20196;-86
2023/06/01 06:06:48;;;;;;;14.83;9.90;;;;;;;-141.97;64.81;47353.78;4995544;28;20643;-83
2023/06/01 06:09:15;;;;;;;16.97;10.10;;;;;;;-141.97;64.14;47572.91;4977741;28;20622;-85
2023/06/01 06:11:40;;;;;;;13.03;9.20;;;;;;;-141.97;63.07;47388.38;4977014;28;20191;-86
2023/06/01 06:14:06;;;;;;;12.77;9.43;;;;;;;-141.97;62.53;47484.47;4977239;28;20172;-86
2023/06/01 06:16:31;;;;;;;14.07;9.93;;;;;;;-141.97;62.18;47594.03;4976973;28;20176;-85
2023/06/01 06:18:56;;;;;;;16.47;9.70;;;;;;;-141.97;62.29;47619.03;4979084;28;20172;-85
2023/06/01 06:21:22;;;;;;;17.20;10.07;;;;;;;-141.97;62.06;47419.13;4987832;28;20192;-86
2023/06/01 06:23:49;;;;;;;15.87;10.13;;;;;;;-141.97;61.33;47615.19;4976430;28;20232;-85
2023/06/01 06:26:14;;;;;;;16.73;9.67;;;;;;;-141.97;60.65;47542.16;4977111;28;20156;-85
2023/06/01 06:28:40;;;;;;;20.57;9.73;;;;;;;-141.97;60.65;47565.22;4978972;28;20183;-86
2023/06/01 06:31:05;;;;;;;12.27;9.40;;;;;;;-141.97;60.00;47492.16;4977550;28;20335;-86
2023/06/01 06:33:30;;;;;;;14.23;9.73;;;;;;;-141.97;61.00;47432.59;4977081;28;20279;-86
2023/06/01 06:35:56;;;;;;;14.30;9.13;;;;;;;-141.97;59.46;47588.28;4977261;28;20239;-85
2023/06/01 06:38:21;;;;;;;13.17;9.27;;;;;;;-141.97;58.66;47745.88;4978396;28;20164;-86
2023/06/01 06:40:47;;;;;;;13.53;9.00;;;;;;;-141.97;58.68;47559.44;4978138;28;20558;-86
2023/06/01 06:43:13;;;;;;;15.30;9.20;;;;;;;-141.97;59.23;47524.84;4977423;28;20199;-86
2023/06/01 06:45:39;;;;;;;12.77;8.70;;;;;;;-141.97;58.38;47392.22;4977976;28;20226;-86
2023/06/01 06:48:05;;;;;;;15.33;9.20;;;;;;;-141.97;58.48;47524.84;5002887;28;20182;-86
2023/06/01 06:50:30;;;;;;;16.47;9.20;;;;;;;-141.97;57.75;47753.56;4998711;28;20178;-87
2023/06/01 06:52:56;;;;;;;13.13;9.30;;;;;;;-141.97;56.50;47388.38;4987616;28;20297;-85
2023/06/01 06:55:22;;;;;;;13.77;9.00;;;;;;;-141.97;56.97;47711.28;4998047;28;20198;-86
2023/06/01 06:57:47;;;;;;;15.57;8.67;;;;;;;-141.97;55.93;47549.84;4996988;28;20648;-85
2023/06/01 07:00:16;;;;;;;11.43;8.57;;;;;;;-141.97;56.22;47457.56;4998210;28;20548;-86
2023/06/01 07:02:44;;;;;;;13.30;7.83;;;;;;;-141.97;55.88;47565.22;4980226;28;20167;-86
2023/06/01 07:05:10;;;;;;;10.77;7.50;;;;;;;-141.97;55.36;47688.22;4996204;28;20160;-86
2023/06/01 07:07:40;;;;;;;13.20;8.27;;;;;;;-141.97;55.55;47574.81;4998095;28;20652;-85
2023/06/01 07:10:07;;;;;;;12.30;8.60;;;;;;;-141.97;56.12;47532.53;4978015;28;20183;-85
2023/06/01 07:12:33;;;;;;;11.33;7.00;;;;;;;-141.97;54.83;47303.81;4995555;28;20674;-86
2023/06/01 07:14:59;;;;;;;11.13;8.00;;;;;;;-141.97;55.48;47709.38;4988139;28;20183;-85
2023/06/01 07:17:24;;;;;;;14.43;8.40;;;;;;;-141.97;54.36;47511.38;4997534;28;20179;-86
2023/06/01 07:19:50;;;;;;;10.87;7.80;;;;;;;-141.97;54.56;47688.22;4996297;28;20235;-86
2023/06/01 07:22:16;;;;;;;12.27;8.30;;;;;;;-141.97;55.24;47453.72;4981717;28;20179;-85
2023/06/01 07:24:42;;;;;;;10.20;7.97;;;;;;;-141.97;54.60;47447.97;4977740;28;20243;-85
2023/06/01 07:27:07;;;;;;;12.60;8.97;;;;;;;-141.97;54.93;47288.44;4975996;28;20270;-86
2023/06/01 07:29:33;;;;;;;11.10;8.50;;;;;;;-141.97;55.74;47780.47;4977827;28;20168;-86
2023/06/01 07:31:59;;;;;;;11.03;8.23;;;;;;;-141.97;55.64;47557.53;4976282;28;20586;-85
2023/06/01 07:34:25;;;;;;;11.03;8.17;;;;;;;-141.97;54.84;47622.88;4979361;28;20176;-85
2023/06/01 07:36:50;;;;;;;14.47;8.10;;;;;;;-141.97;54.98;47522.91;4978259;28;20651;-86
2023/06/01 07:39:16;;;;;;;14.27;8.63;;;;;;;-141.97;55.31;47722.81;4976703;28;20176;-84
2023/06/01 07:41:44;;;;;;;13.43;8.40;;;;;;;-141.97;55.45;47446.03;4982718;28;20176;-86
2023/06/01 07:44:10;;;;;;;12.63;8.70;;;;;;;-141.97;54.26;47709.38;4980829;28;20223;-87
2023/06/01 07:46:35;;;;;;;10.40;8.07;;;;;;;-141.97;53.46;47622.88;4976420;28;20194;-86
2023/06/01 07:49:03;;;;;;;11.73;8.30;;;;;;;-141.97;52.11;47430.66;4982391;28;20214;-86
2023/06/01 07:51:29;;;;;;;11.07;8.13;;;;;;;-141.97;51.38;47422.97;4988303;28;20168;-86
2023/06/01 07:53:57;;;;;;;11.07;8.20;;;;;;;-141.97;50.96;47532.53;4970176;28;20239;-87
2023/06/01 07:56:26;;;;;;;11.55;8.13;;;;;;;-141.97;49.93;47476.78;4978762;28;20164;-87
2023/06/01 07:58:52;;;;;;;11.93;8.50;;;;;;;-141.97;49.42;47446.03;4977627;28;20185;-84
2023/06/01 08:01:18;;;;;;;14.30;8.90;;;;;;;-141.97;49.54;47371.09;4975711;28;20182;-86
2023/06/01 08:03:43;;;;;;;11.27;8.45;;;;;;;-141.97;49.68;47453.72;4975331;28;20175;-87
2023/06/01 08:06:09;;;;;;;10.57;8.75;;;;;;;-141.97;50.37;47344.19;4976827;28;20168;-87
2023/06/01 08:08:35;;;;;;;12.38;8.73;;;;;;;-141.97;49.75;47349.94;4978526;28;20171;-87
2023/06/01 08:11:00;;;;;;;11.85;8.65;;;;;;;-141.97;50.20;47273.06;4979250;28;20170;-85
2023/06/01 08:13:26;;;;;;;13.23;9.38;;;;;;;-141.97;49.48;47317.28;4982699;28;20326;-86
2023/06/01 08:15:52;;;;;;;14.63;8.68;;;;;;;-141.97;49.61;47768.94;4984467;28;20198;-86
2023/06/01 08:18:22;;;;;;;12.88;8.98;;;;;;;-141.97;49.51;47509.47;4982976;28;20179;-87
2023/06/01 08:20:48;;;;;;;16.70;8.85;;;;;;;-141.97;48.72;47599.81;4982319;28;20226;-87
2023/06/01 08:23:16;;;;;;;14.13;9.07;;;;;;;-141.97;48.02;47619.03;4983095;28;20169;-87
2023/06/01 08:25:42;;;;;;;10.60;8.70;;;;;;;-141.97;47.61;47555.59;4981476;28;20646;-86
2023/06/01 08:28:08;;;;;;;12.43;8.30;;;;;;;-141.97;47.59;47655.53;4982792;28;20181;-85
2023/06/01 08:30:33;;;;;;;13.98;9.00;;;;;;;-141.97;48.51;47634.41;4981125;28;20278;-86
2023/06/01 08:32:58;;;;;;;11.85;8.57;;;;;;;-141.97;48.15;47334.56;4983535;28;20668;-86
2023/06/01 08:35:25;;;;;;;11.75;8.05;;;;;;;-141.97;47.22;47334.56;4985441;28;20234;-85
2023/06/01 08:37:50;;;;;;;12.63;8.80;;;;;;;-141.97;47.95;47586.34;4985264;28;20189;-85
2023/06/01 08:40:16;;;;;;;14.15;8.63;;;;;;;-141.97;48.38;47482.56;4981605;28;20266;-86
2023/06/01 08:42:45;;;;;;;11.48;7.85;;;;;;;-141.97;46.41;47521.00;4982693;28;20213;-86
2023/06/01 08:45:12;;;;;;;11.27;7.72;;;;;;;-141.97;45.36;47626.72;4982794;28;20174;-86
2023/06/01 08:47:38;;;;;;;9.65;7.70;;;;;;;-141.97;44.56;47669.00;4990563;28;20192;-85
2023/06/01 08:50:04;;;;;;;11.23;8.52;;;;;;;-141.97;45.55;47634.41;5002446;28;20520;-85
2023/06/01 08:52:31;;;;;;;12.43;8.40;;;;;;;-141.97;47.13;47455.66;4980477;28;20276;-85
2023/06/01 08:55:01;;;;;;;11.57;8.13;;;;;;;-141.97;47.96;47519.06;4981409;28;20185;-85
2023/06/01 08:57:30;;;;;;;12.93;7.95;;;;;;;-141.97;47.66;47496.00;4980483;28;20188;-85
2023/06/01 08:59:58;;;;;;;12.27;8.20;;;;;;;-141.97;48.29;47588.28;4981064;28;20223;-84
2023/06/01 09:02:23;;;;;;;11.27;7.85;;;;;;;-141.97;46.39;47444.13;4980551;28;20149;-86
2023/06/01 09:04:50;;;;;;;13.35;8.50;;;;;;;-141.97;44.97;47446.03;4971137;28;20638;-86
2023/06/01 09:07:16;;;;;;;10.15;7.60;;;;;;;-141.97;44.63;47499.84;4988299;28;20222;-86
2023/06/01 09:09:43;;;;;;;12.90;7.82;;;;;;;-141.97;44.97;47524.84;5018368;28;20229;-86
2023/06/01 09:12:25;;;;;;;8.98;6.45;;;;;;;-141.97;42.71;47494.09;5019090;28;20175;-85
2023/06/01 09:15:06;;;;;;;11.35;6.85;;;;;;;-141.97;43.16;47446.03;5015782;28;20283;-86
2023/06/01 09:17:32;;;;;;;10.02;6.97;;;;;;;-141.97;42.94;47398.00;4990017;28;20174;-86
2023/06/01 09:19:57;;;;;;;10.50;7.40;;;;;;;-141.97;42.06;47444.13;5002558;28;20293;-85
2023/06/01 09:22:23;;;;;;;10.02;6.32;;;;;;;-141.97;42.09;47490.25;4999475;28;20178;-86
2023/06/01 09:24:59;;;;;;;11.45;7.05;;;;;;;-141.97;42.45;47534.44;4979235;28;20170;-86
2023/06/01 09:27:25;;;;;;;12.20;7.35;;;;;;;-141.97;42.20;47524.84;4980024;28;20167;-85
2023/06/01 09:29:56;;;;;;;8.48;7.00;;;;;;;-141.97;43.15;47476.78;4978274;28;20172;-87
2023/06/01 09:32:22;;;;;;;8.05;6.47;;;;;;;-141.97;41.69;47432.59;4979838;28;20206;-86
2023/06/01 09:34:48;;;;;;;10.05;6.10;;;;;;;-141.97;39.62;47705.53;4977811;28;20171;-85
2023/06/01 09:37:13;;;;;;;6.07;5.30;;;;;;;-141.97;40.40;47549.84;4984446;28;20162;-85
2023/06/01 09:39:39;;;;;;;9.73;5.97;;;;;;;-141.97;40.57;47334.56;4997200;28;20162;-84
2023/06/01 09:42:06;;;;;;;6.25;5.00;;;;;;;-141.97;39.13;47592.13;4992837;28;20198;-85
2023/06/01 09:44:33;;;;;;;10.07;5.82;;;;;;;-141.97;40.10;47503.69;4982858;28;20167;-85
2023/06/01 09:46:59;;;;;;;9.05;5.40;;;;;;;-141.97;40.52;47511.38;4984769;28;20179;-85
2023/06/01 09:49:26;;;;;;;9.88;5.68;;;;;;;-141.97;38.93;47501.78;4980952;28;20200;-85
2023/06/01 09:52:14;;;;;;;7.93;5.85;;;;;;;-141.97;40.00;47511.38;4985087;28;20235;-85
2023/06/01 09:54:43;;;;;;;8.25;5.88;;;;;;;-141.97;39.53;47449.88;4978478;28;20161;-85
2023/06/01 09:57:10;;;;;;;8.75;5.50;;;;;;;-141.97;40.31;47503.69;4960567;29;20174;-85
2023/06/01 09:59:44;;;;;;;7.80;5.55;;;;;;;-141.97;40.59;47467.19;5004431;28;20178;-86
2023/06/01 10:02:19;;;;;;;10.25;5.18;;;;;;;-141.97;40.80;47482.56;5014029;28;20169;-86
2023/06/01 10:04:47;;;;;;;8.80;5.88;;;;;;;-141.97;40.68;47515.22;4996633;28;20165;-85
2023/06/01 10:07:14;;;;;;;9.05;5.90;;;;;;;-141.97;40.60;47538.28;4994573;28;20183;-86
2023/06/01 10:09:41;;;;;;;9.13;5.53;;;;;;;-141.97;39.85;47488.31;4979323;28;20166;-84
2023/06/01 10:12:08;;;;;;;8.10;5.50;;;;;;;-141.97;41.28;47522.91;4983010;28;20283;-84
2023/06/01 10:14:37;;;;;;;8.30;5.60;;;;;;;-141.97;40.72;47511.38;4980056;28;20178;-85
2023/06/01 10:17:03;;;;;;;8.95;5.40;;;;;;;-141.97;40.37;47522.91;4978321;28;20929;-84
2023/06/01 10:19:30;;;;;;;10.13;5.32;;;;;;;-141.97;39.35;47424.91;4984160;28;20258;-84
2023/06/01 10:21:57;;;;;;;7.03;5.20;;;;;;;-141.97;39.59;47530.59;4998475;28;20590;-85
2023/06/01 10:24:23;;;;;;;7.40;5.05;;;;;;;-141.97;39.11;47453.72;4997128;28;20166;-84
2023/06/01 10:26:51;;;;;;;7.68;4.68;;;;;;;-141.97;39.42;47472.94;4978860;28;20235;-86
2023/06/01 10:29:18;;;;;;;7.82;5.30;;;;;;;-141.97;39.73;47494.09;5001986;28;20190;-84
2023/06/01 10:31:44;;;;;;;8.82;5.05;;;;;;;-141.97;38.85;47496.00;4997761;28;20202;-84
2023/06/01 10:34:11;;;;;;;6.70;5.07;;;;;;;-141.97;38.66;47522.91;4977111;28;20200;-86
2023/06/01 10:36:51;;;;;;;9.93;5.07;;;;;;;-141.97;38.43;47507.53;4997745;28;20178;-85
2023/06/01 10:39:26;;;;;;;7.45;5.13;;;;;;;-141.97;38.67;47486.41;4997891;28;20257;-85
2023/06/01 10:41:52;;;;;;;8.27;5.45;;;;;;;-141.97;39.25;47494.09;5003859;28;20172;-86
2023/06/01 10:44:40;;;;;;;8.95;5.10;;;;;;;-141.97;39.05;47503.69;5000830;28;20198;-84
2023/06/01 10:47:11;;;;;;;6.53;5.00;;;;;;;-141.97;38.77;47480.63;4977833;28;20273;-85
2023/06/01 10:49:52;;;;;;;7.18;5.22;;;;;;;-141.97;38.09;47530.59;4981013;28;20190;-85
2023/06/01 10:52:35;;;;;;;6.60;5.30;;;;;;;-141.97;38.54;47430.66;5000430;28;20194;-85
2023/06/01 10:55:07;;;;;;;7.97;5.05;;;;;;;-141.97;37.34;47486.41;4975944;28;20610;-87
2023/06/01 10:57:45;;;;;;;7.00;5.07;;;;;;;-141.97;37.95;47472.94;4979511;28;20164;-84
2023/06/01 11:00:14;;;;;;;6.93;4.93;;;;;;;-141.97;37.69;47469.09;4999810;28;20209;-84
2023/06/01 11:03:00;;;;;;;6.00;4.95;;;;;;;-141.97;37.22;47745.88;5020525;28;20160;-90
2023/06/01 11:05:48;;;;;;;7.18;4.97;;;;;;;-141.97;35.65;47486.41;5010719;28;20175;-85
2023/06/01 11:08:20;;;;;;;9.82;5.35;;;;;;;-141.97;36.67;47457.56;4978875;28;20181;-85